sensor_id;sensor_type;location;lat;lon;timestamp;P1;durP1;ratioP1;P2;durP2;ratioP2
41887;SDS011;63122;52.424;13.458;2022-10-17T00:02:11;19.70;;;7.28;;
41887;SDS011;63122;52.424;13.458;2022-10-17T00:04:41;14.18;;;8.70;;
41887;SDS011;63122;52.424;13.458;2022-10-17T00:07:11;11.27;;;7.97;;
41887;SDS011;63122;52.424;13.458;2022-10-17T00:09:43;10.05;;;6.82;;
41887;SDS011;63122;52.424;13.458;2022-10-17T00:12:13;8.57;;;6.55;;
41887;SDS011;63122;52.424;13.458;2022-10-17T00:14:44;6.10;;;4.53;;
41887;SDS011;63122;52.424;13.458;2022-10-17T00:17:13;5.50;;;3.00;;
41887;SDS011;63122;52.424;13.458;2022-10-17T00:19:44;9.48;;;4.78;;
41887;SDS011;63122;52.424;13.458;2022-10-17T00:22:13;8.05;;;5.30;;
41887;SDS011;63122;52.424;13.458;2022-10-17T00:24:46;8.68;;;5.35;;
41887;SDS011;63122;52.424;13.458;2022-10-17T00:27:16;11.85;;;6.18;;
41887;SDS011;63122;52.424;13.458;2022-10-17T00:29:46;12.40;;;6.13;;
41887;SDS011;63122;52.424;13.458;2022-10-17T00:32:17;11.65;;;6.75;;
41887;SDS011;63122;52.424;13.458;2022-10-17T00:34:48;9.05;;;6.20;;
41887;SDS011;63122;52.424;13.458;2022-10-17T00:37:18;11.73;;;6.28;;
41887;SDS011;63122;52.424;13.458;2022-10-17T00:39:50;9.48;;;4.68;;
41887;SDS011;63122;52.424;13.458;2022-10-17T00:42:20;10.52;;;6.35;;
41887;SDS011;63122;52.424;13.458;2022-10-17T00:44:59;11.18;;;6.53;;
41887;SDS011;63122;52.424;13.458;2022-10-17T00:47:36;10.05;;;5.60;;
41887;SDS011;63122;52.424;13.458;2022-10-17T00:50:06;13.52;;;5.80;;
41887;SDS011;63122;52.424;13.458;2022-10-17T00:52:38;7.18;;;5.55;;
41887;SDS011;63122;52.424;13.458;2022-10-17T00:55:13;15.80;;;5.10;;
41887;SDS011;63122;52.424;13.458;2022-10-17T00:57:46;9.35;;;5.85;;
41887;SDS011;63122;52.424;13.458;2022-10-17T01:00:18;8.23;;;5.00;;
41887;SDS011;63122;52.424;13.458;2022-10-17T01:02:48;11.68;;;7.55;;
41887;SDS011;63122;52.424;13.458;2022-10-17T01:05:18;7.97;;;6.20;;
41887;SDS011;63122;52.424;13.458;2022-10-17T01:07:49;8.10;;;5.05;;
41887;SDS011;63122;52.424;13.458;2022-10-17T01:10:25;7.35;;;4.55;;
41887;SDS011;63122;52.424;13.458;2022-10-17T01:13:04;4.95;;;4.45;;
41887;SDS011;63122;52.424;13.458;2022-10-17T01:15:46;6.28;;;4.57;;
41887;SDS011;63122;52.424;13.458;2022-10-17T01:18:24;7.40;;;4.35;;
41887;SDS011;63122;52.424;13.458;2022-10-17T01:21:17;5.70;;;3.97;;
41887;SDS011;63122;52.424;13.458;2022-10-17T01:27:12;5.78;;;3.97;;
41887;SDS011;63122;52.424;13.458;2022-10-17T01:33:09;7.82;;;4.40;;
41887;SDS011;63122;52.424;13.458;2022-10-17T01:35:45;8.95;;;3.90;;
41887;SDS011;63122;52.424;13.458;2022-10-17T01:38:22;6.80;;;3.80;;
41887;SDS011;63122;52.424;13.458;2022-10-17T01:40:57;6.10;;;4.20;;
41887;SDS011;63122;52.424;13.458;2022-10-17T01:43:32;7.13;;;3.70;;
41887;SDS011;63122;52.424;13.458;2022-10-17T01:46:10;8.73;;;4.43;;
41887;SDS011;63122;52.424;13.458;2022-10-17T01:48:46;4.47;;;3.80;;
41887;SDS011;63122;52.424;13.458;2022-10-17T01:51:17;7.55;;;4.10;;
41887;SDS011;63122;52.424;13.458;2022-10-17T01:53:52;6.72;;;4.28;;
41887;SDS011;63122;52.424;13.458;2022-10-17T01:56:25;5.57;;;4.40;;
41887;SDS011;63122;52.424;13.458;2022-10-17T01:58:59;5.32;;;3.97;;
41887;SDS011;63122;52.424;13.458;2022-10-17T02:01:33;6.40;;;4.25;;
41887;SDS011;63122;52.424;13.458;2022-10-17T02:04:09;5.65;;;4.15;;
41887;SDS011;63122;52.424;13.458;2022-10-17T02:06:42;5.78;;;4.03;;
41887;SDS011;63122;52.424;13.458;2022-10-17T02:09:19;9.57;;;5.25;;
41887;SDS011;63122;52.424;13.458;2022-10-17T02:14:53;6.85;;;4.25;;
41887;SDS011;63122;52.424;13.458;2022-10-17T02:17:38;8.32;;;4.05;;
41887;SDS011;63122;52.424;13.458;2022-10-17T02:20:23;4.72;;;3.67;;
41887;SDS011;63122;52.424;13.458;2022-10-17T02:22:57;6.47;;;4.10;;
41887;SDS011;63122;52.424;13.458;2022-10-17T02:25:33;6.82;;;4.15;;
41887;SDS011;63122;52.424;13.458;2022-10-17T02:28:08;6.18;;;4.50;;
41887;SDS011;63122;52.424;13.458;2022-10-17T02:30:49;3.97;;;3.50;;
41887;SDS011;63122;52.424;13.458;2022-10-17T02:33:24;5.47;;;4.10;;
41887;SDS011;63122;52.424;13.458;2022-10-17T02:36:00;14.27;;;4.60;;
41887;SDS011;63122;52.424;13.458;2022-10-17T02:38:34;4.88;;;3.92;;
41887;SDS011;63122;52.424;13.458;2022-10-17T02:41:04;11.80;;;4.63;;
41887;SDS011;63122;52.424;13.458;2022-10-17T02:43:38;5.70;;;3.88;;
41887;SDS011;63122;52.424;13.458;2022-10-17T02:46:11;6.63;;;4.40;;
41887;SDS011;63122;52.424;13.458;2022-10-17T02:48:47;6.68;;;4.05;;
41887;SDS011;63122;52.424;13.458;2022-10-17T02:51:25;7.53;;;4.20;;
41887;SDS011;63122;52.424;13.458;2022-10-17T02:54:02;5.95;;;4.20;;
41887;SDS011;63122;52.424;13.458;2022-10-17T02:56:39;11.93;;;4.75;;
41887;SDS011;63122;52.424;13.458;2022-10-17T02:59:13;6.35;;;4.60;;
41887;SDS011;63122;52.424;13.458;2022-10-17T03:01:46;11.23;;;4.43;;
41887;SDS011;63122;52.424;13.458;2022-10-17T03:04:17;8.23;;;4.57;;
41887;SDS011;63122;52.424;13.458;2022-10-17T03:06:50;5.80;;;4.40;;
41887;SDS011;63122;52.424;13.458;2022-10-17T03:09:20;5.78;;;4.40;;
41887;SDS011;63122;52.424;13.458;2022-10-17T03:11:50;9.38;;;4.60;;
41887;SDS011;63122;52.424;13.458;2022-10-17T03:14:20;8.88;;;4.80;;
41887;SDS011;63122;52.424;13.458;2022-10-17T03:16:51;7.72;;;4.65;;
41887;SDS011;63122;52.424;13.458;2022-10-17T03:19:21;11.27;;;4.80;;
41887;SDS011;63122;52.424;13.458;2022-10-17T03:21:54;12.60;;;4.75;;
41887;SDS011;63122;52.424;13.458;2022-10-17T03:24:24;10.20;;;5.03;;
41887;SDS011;63122;52.424;13.458;2022-10-17T03:26:55;6.80;;;4.88;;
41887;SDS011;63122;52.424;13.458;2022-10-17T03:29:25;8.07;;;5.45;;
41887;SDS011;63122;52.424;13.458;2022-10-17T03:31:55;6.65;;;4.93;;
41887;SDS011;63122;52.424;13.458;2022-10-17T03:34:25;6.27;;;4.97;;
41887;SDS011;63122;52.424;13.458;2022-10-17T03:36:57;6.45;;;4.78;;
41887;SDS011;63122;52.424;13.458;2022-10-17T03:39:27;10.23;;;4.63;;
41887;SDS011;63122;52.424;13.458;2022-10-17T03:41:57;6.20;;;5.03;;
41887;SDS011;63122;52.424;13.458;2022-10-17T03:44:27;6.10;;;4.75;;
41887;SDS011;63122;52.424;13.458;2022-10-17T03:46:58;7.45;;;5.10;;
41887;SDS011;63122;52.424;13.458;2022-10-17T03:49:27;6.63;;;5.07;;
41887;SDS011;63122;52.424;13.458;2022-10-17T03:52:00;11.93;;;5.20;;
41887;SDS011;63122;52.424;13.458;2022-10-17T03:54:30;9.98;;;5.32;;
41887;SDS011;63122;52.424;13.458;2022-10-17T03:57:00;8.02;;;5.32;;
41887;SDS011;63122;52.424;13.458;2022-10-17T03:59:30;6.80;;;4.80;;
41887;SDS011;63122;52.424;13.458;2022-10-17T04:02:00;10.20;;;5.60;;
41887;SDS011;63122;52.424;13.458;2022-10-17T04:04:30;7.57;;;5.00;;
41887;SDS011;63122;52.424;13.458;2022-10-17T04:07:03;9.65;;;4.93;;
41887;SDS011;63122;52.424;13.458;2022-10-17T04:09:32;12.40;;;5.53;;
41887;SDS011;63122;52.424;13.458;2022-10-17T04:12:03;12.32;;;5.20;;
41887;SDS011;63122;52.424;13.458;2022-10-17T04:14:33;14.73;;;5.50;;
41887;SDS011;63122;52.424;13.458;2022-10-17T04:17:03;15.25;;;5.60;;
41887;SDS011;63122;52.424;13.458;2022-10-17T04:19:33;14.38;;;5.25;;
41887;SDS011;63122;52.424;13.458;2022-10-17T04:22:05;9.77;;;5.13;;
41887;SDS011;63122;52.424;13.458;2022-10-17T04:24:36;9.20;;;5.40;;
41887;SDS011;63122;52.424;13.458;2022-10-17T04:27:06;6.32;;;5.03;;
41887;SDS011;63122;52.424;13.458;2022-10-17T04:29:36;11.35;;;5.10;;
41887;SDS011;63122;52.424;13.458;2022-10-17T04:32:06;6.65;;;5.45;;
41887;SDS011;63122;52.424;13.458;2022-10-17T04:34:36;10.60;;;5.10;;
41887;SDS011;63122;52.424;13.458;2022-10-17T04:37:09;8.75;;;4.78;;
41887;SDS011;63122;52.424;13.458;2022-10-17T04:39:38;12.15;;;4.88;;
41887;SDS011;63122;52.424;13.458;2022-10-17T04:42:09;10.80;;;4.97;;
41887;SDS011;63122;52.424;13.458;2022-10-17T04:44:38;10.95;;;5.40;;
41887;SDS011;63122;52.424;13.458;2022-10-17T04:47:08;14.00;;;6.75;;
41887;SDS011;63122;52.424;13.458;2022-10-17T04:49:38;7.63;;;5.65;;
41887;SDS011;63122;52.424;13.458;2022-10-17T04:52:11;13.32;;;5.72;;
41887;SDS011;63122;52.424;13.458;2022-10-17T04:54:41;33.10;;;7.13;;
41887;SDS011;63122;52.424;13.458;2022-10-17T04:57:11;13.07;;;6.03;;
41887;SDS011;63122;52.424;13.458;2022-10-17T04:59:40;13.95;;;6.15;;
41887;SDS011;63122;52.424;13.458;2022-10-17T05:02:11;15.27;;;6.22;;
41887;SDS011;63122;52.424;13.458;2022-10-17T05:04:41;12.73;;;5.78;;
41887;SDS011;63122;52.424;13.458;2022-10-17T05:07:13;17.30;;;6.53;;
41887;SDS011;63122;52.424;13.458;2022-10-17T05:09:43;14.07;;;5.93;;
41887;SDS011;63122;52.424;13.458;2022-10-17T05:12:13;15.50;;;5.95;;
41887;SDS011;63122;52.424;13.458;2022-10-17T05:14:43;11.35;;;6.25;;
41887;SDS011;63122;52.424;13.458;2022-10-17T05:17:13;18.83;;;6.20;;
41887;SDS011;63122;52.424;13.458;2022-10-17T05:19:43;18.15;;;6.60;;
41887;SDS011;63122;52.424;13.458;2022-10-17T05:22:16;18.77;;;6.88;;
41887;SDS011;63122;52.424;13.458;2022-10-17T05:24:46;17.52;;;6.15;;
41887;SDS011;63122;52.424;13.458;2022-10-17T05:27:16;11.02;;;5.97;;
41887;SDS011;63122;52.424;13.458;2022-10-17T05:29:46;17.95;;;5.88;;
41887;SDS011;63122;52.424;13.458;2022-10-17T05:32:17;11.77;;;6.13;;
41887;SDS011;63122;52.424;13.458;2022-10-17T05:34:49;13.50;;;5.43;;
41887;SDS011;63122;52.424;13.458;2022-10-17T05:37:22;12.73;;;5.35;;
41887;SDS011;63122;52.424;13.458;2022-10-17T05:39:52;14.55;;;6.43;;
41887;SDS011;63122;52.424;13.458;2022-10-17T05:42:22;14.10;;;6.75;;
41887;SDS011;63122;52.424;13.458;2022-10-17T05:44:52;17.73;;;6.45;;
41887;SDS011;63122;52.424;13.458;2022-10-17T05:47:22;10.82;;;5.53;;
41887;SDS011;63122;52.424;13.458;2022-10-17T05:49:52;13.57;;;5.57;;
41887;SDS011;63122;52.424;13.458;2022-10-17T05:52:25;16.90;;;5.80;;
41887;SDS011;63122;52.424;13.458;2022-10-17T05:54:57;11.57;;;5.72;;
41887;SDS011;63122;52.424;13.458;2022-10-17T05:57:29;15.30;;;6.13;;
41887;SDS011;63122;52.424;13.458;2022-10-17T05:59:59;12.45;;;5.32;;
41887;SDS011;63122;52.424;13.458;2022-10-17T06:02:32;14.65;;;6.53;;
41887;SDS011;63122;52.424;13.458;2022-10-17T06:05:02;11.30;;;6.15;;
41887;SDS011;63122;52.424;13.458;2022-10-17T06:07:37;8.57;;;5.45;;
41887;SDS011;63122;52.424;13.458;2022-10-17T06:10:10;8.55;;;5.72;;
41887;SDS011;63122;52.424;13.458;2022-10-17T06:12:42;9.05;;;5.22;;
41887;SDS011;63122;52.424;13.458;2022-10-17T06:15:12;11.75;;;5.72;;
41887;SDS011;63122;52.424;13.458;2022-10-17T06:20:35;10.52;;;5.82;;
41887;SDS011;63122;52.424;13.458;2022-10-17T06:23:20;9.38;;;5.65;;
41887;SDS011;63122;52.424;13.458;2022-10-17T06:25:50;9.00;;;6.00;;
41887;SDS011;63122;52.424;13.458;2022-10-17T06:28:23;7.18;;;5.80;;
41887;SDS011;63122;52.424;13.458;2022-10-17T06:30:53;14.70;;;6.40;;
41887;SDS011;63122;52.424;13.458;2022-10-17T06:33:24;13.40;;;6.63;;
41887;SDS011;63122;52.424;13.458;2022-10-17T06:35:57;11.07;;;5.90;;
41887;SDS011;63122;52.424;13.458;2022-10-17T06:38:30;8.88;;;5.88;;
41887;SDS011;63122;52.424;13.458;2022-10-17T06:41:03;7.70;;;6.38;;
41887;SDS011;63122;52.424;13.458;2022-10-17T06:43:35;10.82;;;6.55;;
41887;SDS011;63122;52.424;13.458;2022-10-17T06:46:06;8.93;;;5.80;;
41887;SDS011;63122;52.424;13.458;2022-10-17T06:48:41;12.32;;;6.25;;
41887;SDS011;63122;52.424;13.458;2022-10-17T06:51:11;11.27;;;6.55;;
41887;SDS011;63122;52.424;13.458;2022-10-17T06:53:44;14.23;;;6.43;;
41887;SDS011;63122;52.424;13.458;2022-10-17T06:56:17;9.57;;;6.97;;
41887;SDS011;63122;52.424;13.458;2022-10-17T06:58:48;8.50;;;6.55;;
41887;SDS011;63122;52.424;13.458;2022-10-17T07:01:18;14.73;;;6.82;;
41887;SDS011;63122;52.424;13.458;2022-10-17T07:03:49;14.98;;;7.35;;
41887;SDS011;63122;52.424;13.458;2022-10-17T07:06:18;12.00;;;7.00;;
41887;SDS011;63122;52.424;13.458;2022-10-17T07:09:05;9.20;;;5.88;;
41887;SDS011;63122;52.424;13.458;2022-10-17T07:12:54;8.60;;;6.88;;
41887;SDS011;63122;52.424;13.458;2022-10-17T07:15:28;9.95;;;6.30;;
41887;SDS011;63122;52.424;13.458;2022-10-17T07:18:04;8.73;;;6.40;;
41887;SDS011;63122;52.424;13.458;2022-10-17T07:20:51;10.48;;;6.32;;
41887;SDS011;63122;52.424;13.458;2022-10-17T07:23:53;10.25;;;7.00;;
41887;SDS011;63122;52.424;13.458;2022-10-17T07:26:48;13.45;;;6.38;;
41887;SDS011;63122;52.424;13.458;2022-10-17T07:29:35;7.40;;;6.47;;
41887;SDS011;63122;52.424;13.458;2022-10-17T07:32:32;10.90;;;6.47;;
41887;SDS011;63122;52.424;13.458;2022-10-17T07:35:07;12.75;;;6.32;;
41887;SDS011;63122;52.424;13.458;2022-10-17T07:37:51;10.77;;;6.50;;
41887;SDS011;63122;52.424;13.458;2022-10-17T07:41:11;15.30;;;6.18;;
41887;SDS011;63122;52.424;13.458;2022-10-17T07:47:36;8.27;;;5.82;;
41887;SDS011;63122;52.424;13.458;2022-10-17T07:50:49;12.10;;;6.05;;
41887;SDS011;63122;52.424;13.458;2022-10-17T07:54:13;12.43;;;5.53;;
41887;SDS011;63122;52.424;13.458;2022-10-17T07:56:50;9.45;;;5.40;;
41887;SDS011;63122;52.424;13.458;2022-10-17T07:59:27;7.13;;;5.30;;
41887;SDS011;63122;52.424;13.458;2022-10-17T08:05:05;10.35;;;5.38;;
41887;SDS011;63122;52.424;13.458;2022-10-17T08:08:08;11.68;;;5.15;;
41887;SDS011;63122;52.424;13.458;2022-10-17T08:10:38;16.45;;;5.43;;
41887;SDS011;63122;52.424;13.458;2022-10-17T08:13:08;11.98;;;5.00;;
41887;SDS011;63122;52.424;13.458;2022-10-17T08:15:38;9.80;;;4.72;;
41887;SDS011;63122;52.424;13.458;2022-10-17T08:18:10;14.10;;;4.78;;
41887;SDS011;63122;52.424;13.458;2022-10-17T08:24:16;6.72;;;4.57;;
41887;SDS011;63122;52.424;13.458;2022-10-17T08:30:42;5.03;;;3.83;;
41887;SDS011;63122;52.424;13.458;2022-10-17T08:33:15;11.52;;;4.20;;
41887;SDS011;63122;52.424;13.458;2022-10-17T08:35:45;7.68;;;4.35;;
41887;SDS011;63122;52.424;13.458;2022-10-17T08:38:15;7.38;;;4.13;;
41887;SDS011;63122;52.424;13.458;2022-10-17T08:40:50;5.22;;;3.78;;
41887;SDS011;63122;52.424;13.458;2022-10-17T08:43:27;9.90;;;4.05;;
41887;SDS011;63122;52.424;13.458;2022-10-17T08:46:07;10.93;;;4.18;;
41887;SDS011;63122;52.424;13.458;2022-10-17T08:48:41;7.97;;;3.80;;
41887;SDS011;63122;52.424;13.458;2022-10-17T08:51:14;8.65;;;3.70;;
41887;SDS011;63122;52.424;13.458;2022-10-17T08:53:50;6.65;;;3.78;;
41887;SDS011;63122;52.424;13.458;2022-10-17T08:56:27;10.55;;;3.85;;
41887;SDS011;63122;52.424;13.458;2022-10-17T08:59:15;12.85;;;3.72;;
41887;SDS011;63122;52.424;13.458;2022-10-17T09:01:49;5.35;;;3.22;;
41887;SDS011;63122;52.424;13.458;2022-10-17T09:04:33;10.63;;;3.47;;
41887;SDS011;63122;52.424;13.458;2022-10-17T09:07:15;13.00;;;4.15;;
41887;SDS011;63122;52.424;13.458;2022-10-17T09:09:59;5.72;;;3.30;;
41887;SDS011;63122;52.424;13.458;2022-10-17T09:12:40;5.25;;;3.65;;
41887;SDS011;63122;52.424;13.458;2022-10-17T09:15:27;6.60;;;3.45;;
41887;SDS011;63122;52.424;13.458;2022-10-17T09:18:08;6.97;;;3.33;;
41887;SDS011;63122;52.424;13.458;2022-10-17T09:20:50;11.73;;;3.47;;
41887;SDS011;63122;52.424;13.458;2022-10-17T09:23:24;9.05;;;3.25;;
41887;SDS011;63122;52.424;13.458;2022-10-17T09:26:00;4.95;;;3.28;;
41887;SDS011;63122;52.424;13.458;2022-10-17T09:29:01;10.57;;;3.28;;
41887;SDS011;63122;52.424;13.458;2022-10-17T09:31:46;9.43;;;3.55;;
41887;SDS011;63122;52.424;13.458;2022-10-17T09:34:23;5.65;;;3.13;;
41887;SDS011;63122;52.424;13.458;2022-10-17T09:37:01;4.95;;;3.50;;
41887;SDS011;63122;52.424;13.458;2022-10-17T09:39:33;7.53;;;3.10;;
41887;SDS011;63122;52.424;13.458;2022-10-17T09:42:11;10.65;;;3.75;;
41887;SDS011;63122;52.424;13.458;2022-10-17T09:45:02;4.57;;;3.10;;
41887;SDS011;63122;52.424;13.458;2022-10-17T09:47:44;6.82;;;3.20;;
41887;SDS011;63122;52.424;13.458;2022-10-17T09:50:19;8.88;;;3.92;;
41887;SDS011;63122;52.424;13.458;2022-10-17T09:52:58;13.77;;;3.70;;
41887;SDS011;63122;52.424;13.458;2022-10-17T09:55:36;8.30;;;3.45;;
41887;SDS011;63122;52.424;13.458;2022-10-17T09:58:09;8.68;;;3.08;;
41887;SDS011;63122;52.424;13.458;2022-10-17T10:00:41;7.53;;;3.00;;
41887;SDS011;63122;52.424;13.458;2022-10-17T10:08:02;4.63;;;2.97;;
41887;SDS011;63122;52.424;13.458;2022-10-17T11:29:10;8.82;;;3.20;;
41887;SDS011;63122;52.424;13.458;2022-10-17T14:33:55;4.72;;;2.53;;
41887;SDS011;63122;52.424;13.458;2022-10-17T14:41:12;6.80;;;2.47;;
41887;SDS011;63122;52.424;13.458;2022-10-17T16:28:57;11.15;;;2.80;;
41887;SDS011;63122;52.424;13.458;2022-10-17T17:03:09;12.40;;;3.38;;
41887;SDS011;63122;52.424;13.458;2022-10-17T17:20:02;16.23;;;3.92;;
41887;SDS011;63122;52.424;13.458;2022-10-17T20:06:56;13.10;;;7.85;;
41887;SDS011;63122;52.424;13.458;2022-10-17T20:14:44;14.05;;;8.50;;
41887;SDS011;63122;52.424;13.458;2022-10-17T20:18:13;15.98;;;9.32;;
41887;SDS011;63122;52.424;13.458;2022-10-17T20:32:49;13.57;;;10.02;;
41887;SDS011;63122;52.424;13.458;2022-10-17T20:49:10;23.77;;;11.95;;
41887;SDS011;63122;52.424;13.458;2022-10-17T20:56:58;19.45;;;10.95;;
41887;SDS011;63122;52.424;13.458;2022-10-17T21:00:10;16.67;;;10.45;;
41887;SDS011;63122;52.424;13.458;2022-10-17T21:03:22;18.45;;;11.77;;
41887;SDS011;63122;52.424;13.458;2022-10-17T21:06:56;18.02;;;11.48;;
41887;SDS011;63122;52.424;13.458;2022-10-17T21:10:34;22.35;;;11.90;;
41887;SDS011;63122;52.424;13.458;2022-10-17T21:14:34;16.80;;;10.88;;
41887;SDS011;63122;52.424;13.458;2022-10-17T21:18:21;23.02;;;10.93;;
41887;SDS011;63122;52.424;13.458;2022-10-17T21:22:05;16.58;;;11.63;;
41887;SDS011;63122;52.424;13.458;2022-10-17T21:25:02;19.00;;;11.73;;
41887;SDS011;63122;52.424;13.458;2022-10-17T21:40:44;21.45;;;11.82;;
41887;SDS011;63122;52.424;13.458;2022-10-17T21:44:50;19.88;;;12.27;;
41887;SDS011;63122;52.424;13.458;2022-10-17T21:48:57;18.45;;;12.00;;
41887;SDS011;63122;52.424;13.458;2022-10-17T21:51:50;21.10;;;11.82;;
41887;SDS011;63122;52.424;13.458;2022-10-17T21:56:04;21.23;;;13.60;;
41887;SDS011;63122;52.424;13.458;2022-10-17T21:59:52;24.67;;;13.85;;
41887;SDS011;63122;52.424;13.458;2022-10-17T22:07:41;23.50;;;16.20;;
41887;SDS011;63122;52.424;13.458;2022-10-17T23:10:50;27.98;;;16.15;;
41887;SDS011;63122;52.424;13.458;2022-10-17T23:14:28;22.65;;;15.13;;
41887;SDS011;63122;52.424;13.458;2022-10-17T23:26:00;20.80;;;14.65;;
41887;SDS011;63122;52.424;13.458;2022-10-17T23:29:55;23.35;;;14.73;;
41887;SDS011;63122;52.424;13.458;2022-10-17T23:34:25;23.75;;;17.27;;
